Time;durP1;ratioP1;P1;durP2;ratioP2;P2;SDS_P1;SDS_P2;PMS_P1;PMS_P2;Temp;Humidity;BMP_temperature;BMP_pressure;BME280_temperature;BME280_humidity;BME280_pressure;Samples;Min_cycle;Max_cycle;Signal;HPM_P1;HPM_P2
2022/05/16 00:02:24;;;;;;;12.82;4.18;;;;;;;;;;5048895;28;20033;-73
2022/05/16 00:04:51;;;;;;;9.95;3.58;;;;;;;;;;5052326;28;20033;-73
2022/05/16 00:07:17;;;;;;;10.98;4.35;;;;;;;;;;5050413;28;20039;-73
2022/05/16 00:09:44;;;;;;;12.88;4.47;;;;;;;;;;5051851;28;20037;-74
2022/05/16 00:12:10;;;;;;;10.95;4.13;;;;;;;;;;5050537;28;20051;-74
2022/05/16 00:14:37;;;;;;;13.65;4.18;;;;;;;;;;5053384;28;20037;-74
2022/05/16 00:17:03;;;;;;;13.35;4.53;;;;;;;;;;5050829;28;20064;-74
2022/05/16 00:19:29;;;;;;;14.98;4.07;;;;;;;;;;5048675;28;20464;-74
2022/05/16 00:21:56;;;;;;;12.07;4.53;;;;;;;;;;5052978;28;20088;-74
2022/05/16 00:24:26;;;;;;;17.40;3.88;;;;;;;;;;5045110;28;20033;-74
2022/05/16 00:26:52;;;;;;;11.80;4.30;;;;;;;;;;5048615;28;20082;-74
2022/05/16 00:29:19;;;;;;;11.40;3.83;;;;;;;;;;5051483;28;20037;-73
2022/05/16 00:31:45;;;;;;;11.68;3.90;;;;;;;;;;5048081;28;20041;-72
2022/05/16 00:34:11;;;;;;;15.02;6.05;;;;;;;;;;5048576;28;20154;-73
2022/05/16 00:36:37;;;;;;;6.82;3.55;;;;;;;;;;5050596;28;20469;-73
2022/05/16 00:39:03;;;;;;;11.65;3.97;;;;;;;;;;5022382;28;20044;-73
2022/05/16 00:41:29;;;;;;;10.70;4.05;;;;;;;;;;5032591;28;20048;-73
2022/05/16 00:43:58;;;;;;;10.65;4.00;;;;;;;;;;5051955;28;20027;-73
2022/05/16 00:46:25;;;;;;;11.10;3.55;;;;;;;;;;5050092;28;20109;-73
2022/05/16 00:48:51;;;;;;;10.20;3.20;;;;;;;;;;5050833;28;20087;-73
2022/05/16 00:51:26;;;;;;;8.70;3.60;;;;;;;;;;5048262;28;20452;-73
2022/05/16 00:53:56;;;;;;;10.25;3.58;;;;;;;;;;5051388;28;20519;-73
2022/05/16 00:56:22;;;;;;;8.65;3.53;;;;;;;;;;5050561;28;20021;-73
2022/05/16 00:58:49;;;;;;;11.65;4.00;;;;;;;;;;5050257;28;20077;-73
2022/05/16 01:06:47;;;;;;;10.70;3.83;;;;;;;;;;5051158;28;20110;-73
2022/05/16 01:09:13;;;;;;;10.25;3.72;;;;;;;;;;5019764;28;20555;-73
2022/05/16 01:11:39;;;;;;;8.40;3.17;;;;;;;;;;5046432;28;20068;-73
2022/05/16 01:14:05;;;;;;;9.93;3.80;;;;;;;;;;5046305;28;20457;-73
2022/05/16 01:16:32;;;;;;;11.32;3.70;;;;;;;;;;5047811;28;20370;-73
2022/05/16 01:18:58;;;;;;;10.52;2.90;;;;;;;;;;5047670;28;20094;-73
2022/05/16 01:21:38;;;;;;;10.23;3.33;;;;;;;;;;5050655;28;20052;-73
2022/05/16 01:24:07;;;;;;;9.82;4.05;;;;;;;;;;5052486;28;20025;-73
2022/05/16 01:26:34;;;;;;;12.13;3.15;;;;;;;;;;5045023;28;20065;-73
2022/05/16 01:29:00;;;;;;;6.57;3.08;;;;;;;;;;5049768;28;20488;-73
2022/05/16 01:31:26;;;;;;;12.02;3.35;;;;;;;;;;5040347;28;20029;-73
2022/05/16 01:33:53;;;;;;;13.05;3.60;;;;;;;;;;5044239;28;20152;-73
2022/05/16 01:36:19;;;;;;;8.85;3.45;;;;;;;;;;5037200;28;20042;-73
2022/05/16 01:38:45;;;;;;;11.48;3.90;;;;;;;;;;5042535;28;20055;-72
2022/05/16 01:41:14;;;;;;;7.65;2.90;;;;;;;;;;5050521;28;20048;-73
2022/05/16 01:43:41;;;;;;;8.93;3.03;;;;;;;;;;5049018;28;20056;-73
2022/05/16 01:46:09;;;;;;;9.40;3.08;;;;;;;;;;5042253;28;20462;-73
2022/05/16 01:48:35;;;;;;;8.80;3.03;;;;;;;;;;5024416;28;20047;-73
2022/05/16 01:51:02;;;;;;;9.07;3.92;;;;;;;;;;5051760;28;20362;-73
2022/05/16 01:53:29;;;;;;;8.65;2.80;;;;;;;;;;5041624;28;20518;-73
2022/05/16 01:55:56;;;;;;;7.55;3.03;;;;;;;;;;5052014;28;20033;-72
2022/05/16 01:58:22;;;;;;;8.55;3.42;;;;;;;;;;5050160;28;20091;-73
2022/05/16 02:00:49;;;;;;;7.65;2.78;;;;;;;;;;5029257;28;20040;-73
2022/05/16 02:03:15;;;;;;;8.38;3.25;;;;;;;;;;5048639;28;20590;-73
2022/05/16 02:05:42;;;;;;;9.30;2.97;;;;;;;;;;5050690;28;20025;-73
2022/05/16 02:08:08;;;;;;;11.77;3.65;;;;;;;;;;5030544;28;20029;-73
2022/05/16 02:10:34;;;;;;;14.57;3.33;;;;;;;;;;5049984;28;20151;-73
2022/05/16 02:13:01;;;;;;;13.60;3.50;;;;;;;;;;5043626;28;20064;-73
2022/05/16 02:15:29;;;;;;;8.77;3.20;;;;;;;;;;5045924;28;20026;-73
2022/05/16 02:17:55;;;;;;;11.18;3.80;;;;;;;;;;5042812;28;20111;-73
2022/05/16 02:20:22;;;;;;;10.60;3.67;;;;;;;;;;5051249;28;20105;-73
2022/05/16 02:25:34;;;;;;;12.45;3.10;;;;;;;;;;5041638;28;20048;-73
2022/05/16 02:28:00;;;;;;;8.88;3.08;;;;;;;;;;5042089;28;20036;-73
2022/05/16 02:30:26;;;;;;;11.50;3.05;;;;;;;;;;5050668;28;20037;-73
2022/05/16 02:32:52;;;;;;;8.30;3.17;;;;;;;;;;5033480;28;20056;-73
2022/05/16 02:35:19;;;;;;;6.07;2.40;;;;;;;;;;5048768;28;20028;-73
2022/05/16 02:37:45;;;;;;;8.95;3.05;;;;;;;;;;5033610;28;20041;-73
2022/05/16 02:40:11;;;;;;;6.10;2.90;;;;;;;;;;5049151;28;20033;-73
2022/05/16 02:42:37;;;;;;;11.63;3.53;;;;;;;;;;5048159;28;20048;-73
2022/05/16 02:45:04;;;;;;;6.88;2.85;;;;;;;;;;5049728;28;20029;-73
2022/05/16 02:47:30;;;;;;;12.50;2.88;;;;;;;;;;5024074;28;20036;-73
2022/05/16 02:49:56;;;;;;;8.90;2.90;;;;;;;;;;5031375;28;20047;-73
2022/05/16 02:52:22;;;;;;;6.97;3.40;;;;;;;;;;5049752;28;20094;-74
2022/05/16 02:54:48;;;;;;;8.27;3.00;;;;;;;;;;5049391;28;20029;-74
2022/05/16 02:57:14;;;;;;;6.82;2.92;;;;;;;;;;5045200;28;20048;-73
2022/05/16 02:59:40;;;;;;;7.88;3.13;;;;;;;;;;5048562;28;20028;-74
2022/05/16 03:02:08;;;;;;;5.47;3.10;;;;;;;;;;5047189;28;20021;-74
2022/05/16 03:04:34;;;;;;;7.88;2.75;;;;;;;;;;5049375;28;20059;-74
2022/05/16 03:07:00;;;;;;;11.70;3.10;;;;;;;;;;5050628;28;20029;-74
2022/05/16 03:09:27;;;;;;;6.10;2.50;;;;;;;;;;5038546;28;20038;-74
2022/05/16 03:11:53;;;;;;;7.60;2.60;;;;;;;;;;5048615;28;20434;-74
2022/05/16 03:14:19;;;;;;;6.70;3.15;;;;;;;;;;5048929;28;20055;-74
2022/05/16 03:16:46;;;;;;;7.25;3.10;;;;;;;;;;5037443;28;20053;-74
2022/05/16 03:19:12;;;;;;;6.05;2.70;;;;;;;;;;5043443;28;20058;-74
2022/05/16 03:21:39;;;;;;;8.23;2.88;;;;;;;;;;5048087;28;20052;-74
2022/05/16 03:24:05;;;;;;;10.27;2.60;;;;;;;;;;5046552;28;20021;-73
2022/05/16 03:26:31;;;;;;;9.50;2.80;;;;;;;;;;5044401;28;20417;-74
2022/05/16 03:28:58;;;;;;;6.72;2.88;;;;;;;;;;5032436;28;20068;-72
2022/05/16 03:31:24;;;;;;;7.55;2.53;;;;;;;;;;5027296;28;20029;-72
2022/05/16 03:33:51;;;;;;;8.70;2.85;;;;;;;;;;5048557;28;20071;-73
2022/05/16 03:36:17;;;;;;;6.60;2.50;;;;;;;;;;5049007;28;20366;-72
2022/05/16 03:41:28;;;;;;;8.75;2.97;;;;;;;;;;5048417;28;20067;-72
2022/05/16 03:43:54;;;;;;;5.05;2.25;;;;;;;;;;5050675;28;20082;-73
2022/05/16 03:46:20;;;;;;;8.68;2.97;;;;;;;;;;5039112;28;20030;-73
2022/05/16 03:48:46;;;;;;;6.75;2.35;;;;;;;;;;5042988;28;20041;-73
2022/05/16 03:51:13;;;;;;;7.15;2.60;;;;;;;;;;5048292;28;20029;-72
2022/05/16 03:53:46;;;;;;;6.40;2.40;;;;;;;;;;5038949;28;20057;-73
2022/05/16 03:56:17;;;;;;;8.43;2.63;;;;;;;;;;5038755;28;20028;-73
2022/05/16 03:58:43;;;;;;;9.40;2.50;;;;;;;;;;5031555;28;20041;-72
2022/05/16 04:01:09;;;;;;;6.60;3.42;;;;;;;;;;5049588;28;20079;-73
2022/05/16 04:03:36;;;;;;;10.82;2.95;;;;;;;;;;5052379;28;20040;-72
2022/05/16 04:06:02;;;;;;;8.85;2.67;;;;;;;;;;5038996;28;20483;-72
2022/05/16 04:08:29;;;;;;;8.30;2.30;;;;;;;;;;5034121;28;20029;-72
2022/05/16 04:10:55;;;;;;;5.20;2.20;;;;;;;;;;5051906;28;20017;-73
2022/05/16 04:13:21;;;;;;;5.85;2.38;;;;;;;;;;5053763;28;20028;-72
2022/05/16 04:15:47;;;;;;;8.98;2.88;;;;;;;;;;5029607;28;20029;-73
2022/05/16 04:18:13;;;;;;;6.68;2.00;;;;;;;;;;5050242;28;20037;-73
2022/05/16 04:20:40;;;;;;;6.72;2.40;;;;;;;;;;5031239;28;20123;-73
2022/05/16 04:23:07;;;;;;;5.78;2.20;;;;;;;;;;5043898;28;20366;-72
2022/05/16 04:25:33;;;;;;;11.95;2.90;;;;;;;;;;5039631;28;20058;-73
2022/05/16 04:28:00;;;;;;;6.70;2.25;;;;;;;;;;5048096;28;20073;-73
2022/05/16 04:30:26;;;;;;;7.25;2.45;;;;;;;;;;5052271;28;20029;-73
2022/05/16 04:32:52;;;;;;;7.50;2.63;;;;;;;;;;5045755;28;20056;-72
2022/05/16 04:35:18;;;;;;;6.78;2.47;;;;;;;;;;5038512;28;20037;-73
2022/05/16 04:37:44;;;;;;;5.13;2.10;;;;;;;;;;5049155;28;20044;-73
2022/05/16 04:40:11;;;;;;;6.78;2.47;;;;;;;;;;5050815;28;20029;-73
2022/05/16 04:42:40;;;;;;;7.63;2.13;;;;;;;;;;5048401;28;20060;-73
2022/05/16 04:45:26;;;;;;;11.23;2.20;;;;;;;;;;5041616;28;20036;-72
2022/05/16 04:47:54;;;;;;;7.10;2.53;;;;;;;;;;5040053;28;20571;-73
2022/05/16 04:50:22;;;;;;;7.50;2.47;;;;;;;;;;5052736;28;20551;-73
2022/05/16 04:52:48;;;;;;;7.50;2.17;;;;;;;;;;5043571;28;20037;-73
2022/05/16 04:55:14;;;;;;;4.55;2.05;;;;;;;;;;5050201;28;20035;-73
2022/05/16 04:57:41;;;;;;;6.07;1.92;;;;;;;;;;5042271;28;21707;-73
2022/05/16 05:00:08;;;;;;;5.60;2.15;;;;;;;;;;5043026;28;20726;-74
2022/05/16 05:02:34;;;;;;;6.18;2.13;;;;;;;;;;5041809;28;20037;-74
2022/05/16 05:05:00;;;;;;;4.75;1.80;;;;;;;;;;5025797;28;20044;-78
2022/05/16 05:07:27;;;;;;;8.75;2.40;;;;;;;;;;5051379;28;20041;-78
2022/05/16 05:15:23;;;;;;;15.65;7.68;;;;;;;;;;5046198;28;20064;-76
2022/05/16 05:17:50;;;;;;;8.40;2.22;;;;;;;;;;5029964;28;20037;-74
2022/05/16 05:20:17;;;;;;;7.47;1.80;;;;;;;;;;5046527;28;20095;-75
2022/05/16 05:22:45;;;;;;;6.97;2.15;;;;;;;;;;5049992;28;20041;-75
2022/05/16 05:25:15;;;;;;;10.77;2.53;;;;;;;;;;5050653;28;20104;-75
2022/05/16 05:27:41;;;;;;;7.35;2.30;;;;;;;;;;5050631;28;20512;-75
2022/05/16 05:30:09;;;;;;;10.88;2.28;;;;;;;;;;5044975;28;20065;-74
2022/05/16 05:32:35;;;;;;;5.15;2.08;;;;;;;;;;5049528;28;20025;-75
2022/05/16 05:35:01;;;;;;;5.95;2.13;;;;;;;;;;5049525;28;20037;-75
2022/05/16 05:37:27;;;;;;;9.43;3.15;;;;;;;;;;5040221;28;20966;-74
2022/05/16 05:39:54;;;;;;;8.43;2.22;;;;;;;;;;5038617;28;20454;-73
2022/05/16 05:42:20;;;;;;;9.43;4.70;;;;;;;;;;5044467;28;20025;-73
2022/05/16 05:44:46;;;;;;;19.90;9.93;;;;;;;;;;5048403;28;20155;-73
2022/05/16 05:47:12;;;;;;;8.10;2.95;;;;;;;;;;5046206;28;20028;-74
2022/05/16 05:49:39;;;;;;;6.57;2.00;;;;;;;;;;5048642;28;20458;-75
2022/05/16 05:52:05;;;;;;;12.43;2.72;;;;;;;;;;5046504;28;20431;-74
2022/05/16 05:54:31;;;;;;;10.18;2.75;;;;;;;;;;5013401;28;20868;-75
2022/05/16 05:56:57;;;;;;;7.35;2.28;;;;;;;;;;5023990;28;20448;-74
2022/05/16 05:59:24;;;;;;;9.93;2.10;;;;;;;;;;5046813;28;20045;-76
2022/05/16 06:01:50;;;;;;;9.38;2.15;;;;;;;;;;5048720;28;20389;-75
2022/05/16 06:04:16;;;;;;;7.25;1.95;;;;;;;;;;5048534;28;20028;-75
2022/05/16 06:06:43;;;;;;;7.72;2.58;;;;;;;;;;5030520;28;20075;-75
2022/05/16 06:09:09;;;;;;;5.85;2.55;;;;;;;;;;5025444;28;20041;-75
2022/05/16 06:11:36;;;;;;;6.43;2.30;;;;;;;;;;5048821;28;20097;-75
2022/05/16 06:14:02;;;;;;;5.88;2.20;;;;;;;;;;5049524;28;20041;-75
2022/05/16 06:16:28;;;;;;;13.20;3.05;;;;;;;;;;5020922;28;20033;-75
2022/05/16 06:18:54;;;;;;;9.23;2.13;;;;;;;;;;5049874;28;20229;-75
2022/05/16 06:21:21;;;;;;;9.05;2.45;;;;;;;;;;5046861;28;20397;-75
2022/05/16 06:23:48;;;;;;;11.05;2.42;;;;;;;;;;5046816;28;20035;-74
2022/05/16 06:26:15;;;;;;;8.88;2.38;;;;;;;;;;5048080;28;20033;-76
2022/05/16 06:28:41;;;;;;;6.82;2.30;;;;;;;;;;5045368;28;20037;-75
2022/05/16 06:31:08;;;;;;;7.80;2.38;;;;;;;;;;5044323;28;20526;-74
2022/05/16 06:33:34;;;;;;;25.55;13.30;;;;;;;;;;5046246;28;20095;-74
2022/05/16 06:36:01;;;;;;;11.65;4.35;;;;;;;;;;5049122;28;20037;-74
2022/05/16 06:38:31;;;;;;;8.38;2.25;;;;;;;;;;5047745;28;20435;-75
2022/05/16 06:40:58;;;;;;;7.43;2.15;;;;;;;;;;5046814;28;20487;-76
2022/05/16 06:43:25;;;;;;;4.75;2.50;;;;;;;;;;5048630;28;20036;-76
2022/05/16 06:45:51;;;;;;;6.93;2.60;;;;;;;;;;5049212;28;20033;-76
2022/05/16 06:48:17;;;;;;;4.95;2.00;;;;;;;;;;5031551;28;20032;-77
2022/05/16 06:50:44;;;;;;;6.93;2.40;;;;;;;;;;5049588;28;20056;-75
2022/05/16 06:53:14;;;;;;;8.60;2.50;;;;;;;;;;5043367;28;20025;-76
2022/05/16 06:55:40;;;;;;;6.30;2.05;;;;;;;;;;5046028;28;20032;-76
2022/05/16 06:58:06;;;;;;;9.38;2.70;;;;;;;;;;5027145;28;20260;-76
2022/05/16 07:00:32;;;;;;;8.30;2.13;;;;;;;;;;5046872;28;20122;-74
2022/05/16 07:02:58;;;;;;;7.88;2.15;;;;;;;;;;5046445;28;20167;-75
2022/05/16 07:05:24;;;;;;;9.80;3.08;;;;;;;;;;5027448;28;20025;-75
2022/05/16 07:07:51;;;;;;;11.15;2.33;;;;;;;;;;5048102;28;20033;-76
2022/05/16 07:10:17;;;;;;;9.77;2.72;;;;;;;;;;5046703;28;20434;-75
2022/05/16 07:12:44;;;;;;;9.32;1.90;;;;;;;;;;5042671;28;20044;-73
2022/05/16 07:15:10;;;;;;;9.77;2.95;;;;;;;;;;5033674;28;20544;-73
2022/05/16 07:17:37;;;;;;;14.75;5.97;;;;;;;;;;5050362;28;20392;-75
2022/05/16 07:20:04;;;;;;;12.88;5.00;;;;;;;;;;5037958;28;20029;-75
2022/05/16 07:22:30;;;;;;;7.43;2.05;;;;;;;;;;5031199;28;20499;-75
2022/05/16 07:24:58;;;;;;;7.05;2.15;;;;;;;;;;5040640;28;20079;-76
2022/05/16 07:30:10;;;;;;;12.02;2.80;;;;;;;;;;5043798;28;20039;-77
2022/05/16 07:32:37;;;;;;;8.23;2.60;;;;;;;;;;5041757;28;20026;-76
2022/05/16 07:35:06;;;;;;;8.45;2.70;;;;;;;;;;5025788;28;20479;-76
2022/05/16 07:37:33;;;;;;;9.45;2.22;;;;;;;;;;5051168;28;20533;-74
2022/05/16 07:39:59;;;;;;;8.52;2.60;;;;;;;;;;5053683;28;20376;-75
2022/05/16 07:42:26;;;;;;;11.00;2.38;;;;;;;;;;5052045;28;20376;-75
2022/05/16 07:44:52;;;;;;;9.70;2.13;;;;;;;;;;5051700;28;20025;-76
2022/05/16 07:47:18;;;;;;;9.73;2.13;;;;;;;;;;5052824;28;20389;-75
2022/05/16 07:49:44;;;;;;;8.52;2.47;;;;;;;;;;5051440;28;20109;-76
2022/05/16 07:52:10;;;;;;;6.88;1.85;;;;;;;;;;5042058;28;20045;-76
2022/05/16 07:54:37;;;;;;;8.82;2.25;;;;;;;;;;5052601;28;20112;-78
2022/05/16 07:57:04;;;;;;;5.97;1.92;;;;;;;;;;5034727;28;20028;-75
2022/05/16 07:59:30;;;;;;;16.02;8.90;;;;;;;;;;5037111;28;20044;-75
2022/05/16 08:01:59;;;;;;;7.53;2.70;;;;;;;;;;5047772;28;20436;-73
2022/05/16 08:04:25;;;;;;;9.00;2.50;;;;;;;;;;5044514;28;20037;-73
2022/05/16 08:06:51;;;;;;;7.82;2.60;;;;;;;;;;5042037;28;20033;-75
2022/05/16 08:12:02;;;;;;;7.28;2.13;;;;;;;;;;5048371;28;20079;-74
2022/05/16 08:14:29;;;;;;;6.32;2.47;;;;;;;;;;5039305;28;20060;-73
2022/05/16 08:16:55;;;;;;;12.27;3.05;;;;;;;;;;5056800;28;20116;-73
2022/05/16 08:19:21;;;;;;;7.25;1.95;;;;;;;;;;5047888;28;20037;-73
2022/05/16 08:21:48;;;;;;;7.22;2.42;;;;;;;;;;5046431;28;20057;-74
2022/05/16 08:24:14;;;;;;;7.43;3.15;;;;;;;;;;5029885;28;20047;-73
2022/05/16 08:26:41;;;;;;;9.07;3.70;;;;;;;;;;5045034;28;20029;-76
2022/05/16 08:29:07;;;;;;;7.78;3.15;;;;;;;;;;5051988;28;20041;-75
2022/05/16 08:31:33;;;;;;;6.90;2.20;;;;;;;;;;5029656;28;20358;-75
2022/05/16 08:33:59;;;;;;;10.10;2.28;;;;;;;;;;5049011;28;20025;-75
2022/05/16 08:41:57;;;;;;;6.78;2.60;;;;;;;;;;5047105;28;20031;-75
2022/05/16 08:44:28;;;;;;;9.75;2.47;;;;;;;;;;5043968;28;20099;-75
2022/05/16 08:47:05;;;;;;;6.57;2.53;;;;;;;;;;5045268;28;20111;-75
2022/05/16 08:49:46;;;;;;;9.23;2.35;;;;;;;;;;5049008;28;20032;-77
2022/05/16 08:52:22;;;;;;;6.60;1.92;;;;;;;;;;5035248;28;20031;-77
2022/05/16 08:54:52;;;;;;;15.95;8.80;;;;;;;;;;5049261;28;20029;-74
2022/05/16 08:57:22;;;;;;;6.78;2.72;;;;;;;;;;5045452;28;20473;-72
2022/05/16 08:59:57;;;;;;;7.87;2.63;;;;;;;;;;5047948;28;20028;-73
2022/05/16 09:02:24;;;;;;;6.47;2.15;;;;;;;;;;5050561;28;20048;-73
2022/05/16 09:04:53;;;;;;;10.15;2.28;;;;;;;;;;5044084;28;20137;-73
2022/05/16 09:07:19;;;;;;;11.45;2.50;;;;;;;;;;5052659;28;20021;-73
2022/05/16 09:09:45;;;;;;;8.15;2.72;;;;;;;;;;5049711;28;20082;-73
2022/05/16 09:12:20;;;;;;;9.05;2.25;;;;;;;;;;5042451;28;20473;-73
2022/05/16 09:15:05;;;;;;;7.05;2.65;;;;;;;;;;5026671;28;20035;-73
2022/05/16 09:17:48;;;;;;;12.05;2.42;;;;;;;;;;5039829;28;20445;-73
2022/05/16 09:20:31;;;;;;;7.35;2.05;;;;;;;;;;5033565;28;20040;-73
2022/05/16 09:22:57;;;;;;;11.50;2.25;;;;;;;;;;5042314;28;20044;-74
2022/05/16 09:25:27;;;;;;;8.18;2.40;;;;;;;;;;5048922;28;20025;-73
2022/05/16 09:30:44;;;;;;;9.60;2.47;;;;;;;;;;5045141;28;20086;-72
2022/05/16 09:33:12;;;;;;;20.63;2.50;;;;;;;;;;5047579;28;20028;-73
2022/05/16 09:35:47;;;;;;;7.97;2.42;;;;;;;;;;5033445;28;20036;-73
2022/05/16 09:38:13;;;;;;;28.77;18.05;;;;;;;;;;5049891;28;20040;-72
2022/05/16 09:40:57;;;;;;;10.88;4.75;;;;;;;;;;5046791;28;20419;-73
2022/05/16 09:43:24;;;;;;;8.57;2.20;;;;;;;;;;5043517;28;20028;-75
2022/05/16 09:45:52;;;;;;;8.15;2.10;;;;;;;;;;5050007;28;20032;-75
2022/05/16 09:48:20;;;;;;;5.55;2.15;;;;;;;;;;5049921;28;20033;-75
2022/05/16 09:51:01;;;;;;;12.15;2.70;;;;;;;;;;5046575;28;20549;-76
2022/05/16 09:53:36;;;;;;;10.05;2.40;;;;;;;;;;5048143;28;20041;-75
2022/05/16 09:56:35;;;;;;;12.07;2.33;;;;;;;;;;5047530;28;20028;-75
2022/05/16 09:59:02;;;;;;;6.75;1.90;;;;;;;;;;4985456;28;20073;-75
2022/05/16 10:01:37;;;;;;;7.40;2.00;;;;;;;;;;5028871;28;20055;-75
2022/05/16 10:04:19;;;;;;;6.60;2.97;;;;;;;;;;5049362;28;20057;-75
2022/05/16 10:07:02;;;;;;;6.55;2.15;;;;;;;;;;5039579;28;20102;-76
2022/05/16 10:09:29;;;;;;;9.88;1.85;;;;;;;;;;5051843;28;20381;-75
2022/05/16 10:11:57;;;;;;;6.57;1.92;;;;;;;;;;5045374;28;20025;-75
2022/05/16 10:14:23;;;;;;;8.27;2.20;;;;;;;;;;5049485;28;20376;-76
2022/05/16 10:16:51;;;;;;;9.00;2.13;;;;;;;;;;5041527;28;20025;-75
2022/05/16 10:19:19;;;;;;;9.23;1.65;;;;;;;;;;5045662;28;20127;-74
2022/05/16 10:21:54;;;;;;;11.93;2.30;;;;;;;;;;5048149;28;20083;-76
2022/05/16 10:24:21;;;;;;;8.35;2.13;;;;;;;;;;5031917;28;20118;-76
2022/05/16 10:26:52;;;;;;;11.00;2.15;;;;;;;;;;5040486;28;20033;-76
2022/05/16 10:29:21;;;;;;;13.50;3.22;;;;;;;;;;5051456;28;20115;-75
2022/05/16 10:35:02;;;;;;;8.10;2.03;;;;;;;;;;5044830;28;20091;-76
2022/05/16 10:37:29;;;;;;;4.45;1.92;;;;;;;;;;5041166;28;20021;-76
2022/05/16 10:40:22;;;;;;;12.18;2.75;;;;;;;;;;5050340;28;20491;-76
2022/05/16 10:43:00;;;;;;;27.00;14.90;;;;;;;;;;5024328;28;20049;-75
2022/05/16 10:45:27;;;;;;;11.27;4.90;;;;;;;;;;5034095;28;20022;-76
2022/05/16 10:47:56;;;;;;;15.52;3.38;;;;;;;;;;5030838;28;20396;-76
2022/05/16 10:50:27;;;;;;;10.55;2.60;;;;;;;;;;5034877;28;20061;-75
2022/05/16 10:52:56;;;;;;;11.13;2.53;;;;;;;;;;5022149;28;20031;-75
2022/05/16 10:55:22;;;;;;;8.57;2.78;;;;;;;;;;5051208;28;20029;-75
2022/05/16 10:57:55;;;;;;;16.58;4.00;;;;;;;;;;5029487;28;20044;-75
2022/05/16 11:00:26;;;;;;;11.75;2.10;;;;;;;;;;5049198;28;20032;-74
2022/05/16 11:02:52;;;;;;;8.38;2.95;;;;;;;;;;5070351;28;20240;-75
2022/05/16 11:05:25;;;;;;;8.98;2.63;;;;;;;;;;5049346;28;20457;-75
2022/05/16 11:08:09;;;;;;;13.60;3.20;;;;;;;;;;5051563;28;20021;-76
2022/05/16 11:10:41;;;;;;;10.52;3.40;;;;;;;;;;5052104;28;20417;-76
2022/05/16 11:13:07;;;;;;;9.57;2.92;;;;;;;;;;5053774;28;20051;-75
2022/05/16 11:15:43;;;;;;;14.10;2.60;;;;;;;;;;5041569;28;20370;-75
2022/05/16 11:18:09;;;;;;;6.20;2.40;;;;;;;;;;5074414;28;20239;-75
2022/05/16 11:20:48;;;;;;;11.23;3.30;;;;;;;;;;5055402;28;20562;-76
2022/05/16 11:23:40;;;;;;;10.45;2.88;;;;;;;;;;5037465;28;20022;-73
2022/05/16 11:26:11;;;;;;;11.10;2.83;;;;;;;;;;5049416;28;21085;-76
2022/05/16 11:28:40;;;;;;;10.10;2.67;;;;;;;;;;5036289;28;20369;-75
2022/05/16 11:31:08;;;;;;;9.80;2.92;;;;;;;;;;5058341;28;20031;-74
2022/05/16 11:33:52;;;;;;;10.52;3.53;;;;;;;;;;5061638;28;20036;-74
2022/05/16 11:36:37;;;;;;;9.32;2.90;;;;;;;;;;5037178;28;20033;-74
2022/05/16 11:39:11;;;;;;;9.63;3.58;;;;;;;;;;5048414;28;20469;-74
2022/05/16 11:41:45;;;;;;;9.75;3.10;;;;;;;;;;5054829;28;20043;-74
2022/05/16 11:44:15;;;;;;;12.65;4.07;;;;;;;;;;5052923;28;20115;-74
2022/05/16 11:46:53;;;;;;;12.98;3.10;;;;;;;;;;5062874;28;20025;-74
2022/05/16 11:49:27;;;;;;;10.48;3.05;;;;;;;;;;5054139;28;20025;-74
2022/05/16 11:52:12;;;;;;;7.70;2.97;;;;;;;;;;5052239;28;20037;-74
2022/05/16 11:54:40;;;;;;;15.13;4.40;;;;;;;;;;5053167;28;20028;-74
2022/05/16 12:02:49;;;;;;;9.55;3.65;;;;;;;;;;5034877;28;20044;-74
2022/05/16 12:05:21;;;;;;;8.13;3.10;;;;;;;;;;5037849;28;20026;-74
2022/05/16 12:07:57;;;;;;;12.18;2.78;;;;;;;;;;5046825;28;20033;-74
2022/05/16 12:10:31;;;;;;;10.50;3.47;;;;;;;;;;5036444;28;20025;-74
2022/05/16 12:13:18;;;;;;;14.77;3.67;;;;;;;;;;5043263;28;20033;-74
2022/05/16 12:15:46;;;;;;;11.02;3.50;;;;;;;;;;5059204;28;20411;-74
2022/05/16 12:18:44;;;;;;;11.40;3.53;;;;;;;;;;5039393;28;20036;-74
2022/05/16 12:21:10;;;;;;;13.30;4.13;;;;;;;;;;5003408;28;20492;-74
2022/05/16 12:23:52;;;;;;;10.13;3.65;;;;;;;;;;5051008;28;20045;-74
2022/05/16 12:26:44;;;;;;;11.02;3.65;;;;;;;;;;5036353;28;20029;-74
2022/05/16 12:29:11;;;;;;;10.75;4.47;;;;;;;;;;5021942;28;20049;-74
2022/05/16 12:31:49;;;;;;;8.23;3.35;;;;;;;;;;5066397;28;20035;-74
2022/05/16 12:34:35;;;;;;;12.02;3.75;;;;;;;;;;5064819;28;20035;-73
2022/05/16 12:37:03;;;;;;;10.98;3.22;;;;;;;;;;5053665;28;20346;-74
2022/05/16 12:39:31;;;;;;;8.80;3.33;;;;;;;;;;5050499;28;20029;-74
2022/05/16 12:42:16;;;;;;;7.30;3.15;;;;;;;;;;5043644;28;20033;-74
2022/05/16 12:44:53;;;;;;;8.65;3.60;;;;;;;;;;5040021;28;20025;-74
2022/05/16 12:47:22;;;;;;;10.60;3.92;;;;;;;;;;5072141;28;20764;-74
2022/05/16 12:49:57;;;;;;;9.73;3.30;;;;;;;;;;5034071;28;20469;-76
2022/05/16 12:52:29;;;;;;;14.88;3.95;;;;;;;;;;5042232;28;20025;-74
2022/05/16 12:55:12;;;;;;;10.00;4.03;;;;;;;;;;5041281;28;20500;-75
2022/05/16 12:57:54;;;;;;;10.90;4.00;;;;;;;;;;5040539;28;20029;-76
2022/05/16 13:00:22;;;;;;;12.93;4.22;;;;;;;;;;5050181;28;20480;-75
2022/05/16 13:02:48;;;;;;;22.20;16.17;;;;;;;;;;5044433;28;20060;-76
2022/05/16 13:05:25;;;;;;;18.17;4.88;;;;;;;;;;5044859;28;20124;-75
2022/05/16 13:07:54;;;;;;;17.55;5.78;;;;;;;;;;5047796;28;20029;-75
2022/05/16 13:10:49;;;;;;;13.63;7.00;;;;;;;;;;5051078;28;20021;-76
2022/05/16 13:13:21;;;;;;;12.73;7.22;;;;;;;;;;5019099;28;20041;-75
2022/05/16 13:16:01;;;;;;;18.17;7.78;;;;;;;;;;5048693;28;20053;-75
2022/05/16 13:18:30;;;;;;;13.38;6.22;;;;;;;;;;5045903;28;20496;-75
2022/05/16 13:21:00;;;;;;;11.63;6.57;;;;;;;;;;5052184;28;20071;-75
2022/05/16 13:23:26;;;;;;;9.80;5.80;;;;;;;;;;5038160;28;20100;-75
2022/05/16 13:31:33;;;;;;;13.07;6.72;;;;;;;;;;5053514;28;20032;-75
2022/05/16 13:34:04;;;;;;;10.00;6.15;;;;;;;;;;5050315;28;20057;-75
2022/05/16 13:36:31;;;;;;;12.43;6.65;;;;;;;;;;5051803;28;20033;-75
2022/05/16 13:39:03;;;;;;;18.92;7.03;;;;;;;;;;5043830;28;20177;-74
2022/05/16 13:41:30;;;;;;;11.00;7.20;;;;;;;;;;5045171;28;20514;-74
2022/05/16 13:43:58;;;;;;;16.30;8.65;;;;;;;;;;5049902;28;20042;-74
2022/05/16 13:46:25;;;;;;;13.40;8.73;;;;;;;;;;5052922;28;20029;-73
2022/05/16 13:49:10;;;;;;;12.93;8.75;;;;;;;;;;5052358;28;20033;-75
2022/05/16 13:51:47;;;;;;;15.57;8.23;;;;;;;;;;5044079;28;20029;-75
2022/05/16 13:54:19;;;;;;;13.85;9.50;;;;;;;;;;5042323;28;20492;-78
2022/05/16 13:56:47;;;;;;;26.90;16.50;;;;;;;;;;5044144;28;20050;-75
2022/05/16 13:59:13;;;;;;;43.92;26.98;;;;;;;;;;5050068;28;20823;-73
2022/05/16 14:01:48;;;;;;;17.63;6.28;;;;;;;;;;5032826;28;20044;-74
2022/05/16 14:04:15;;;;;;;16.38;6.45;;;;;;;;;;5022563;28;20029;-75
2022/05/16 14:06:46;;;;;;;11.32;5.88;;;;;;;;;;5047115;28;20044;-75
2022/05/16 14:09:15;;;;;;;11.67;5.90;;;;;;;;;;5052661;28;20434;-75
2022/05/16 14:11:42;;;;;;;10.68;5.35;;;;;;;;;;5051545;28;20093;-75
2022/05/16 14:14:08;;;;;;;11.02;6.07;;;;;;;;;;5052300;28;20044;-75
2022/05/16 14:16:39;;;;;;;12.02;5.75;;;;;;;;;;5032587;28;20025;-74
2022/05/16 14:19:07;;;;;;;15.40;7.03;;;;;;;;;;5043765;28;20059;-73
2022/05/16 14:21:54;;;;;;;13.35;6.50;;;;;;;;;;5050180;28;20049;-73
2022/05/16 14:24:25;;;;;;;15.77;7.47;;;;;;;;;;5051792;28;20032;-73
2022/05/16 14:26:52;;;;;;;13.30;6.93;;;;;;;;;;5046431;28;20029;-73
2022/05/16 14:29:23;;;;;;;14.25;7.82;;;;;;;;;;5044922;28;20079;-73
2022/05/16 14:31:59;;;;;;;14.65;8.85;;;;;;;;;;5051642;28;20025;-73
2022/05/16 14:34:37;;;;;;;16.25;9.98;;;;;;;;;;5042513;28;20022;-73
2022/05/16 14:37:04;;;;;;;17.27;9.63;;;;;;;;;;5050755;28;20384;-73
2022/05/16 14:39:31;;;;;;;19.17;11.65;;;;;;;;;;5050158;28;20028;-73
2022/05/16 14:42:06;;;;;;;19.50;11.82;;;;;;;;;;5041816;28;20048;-73
2022/05/16 14:44:32;;;;;;;19.35;10.95;;;;;;;;;;5032376;28;20359;-73
2022/05/16 14:47:02;;;;;;;19.23;11.63;;;;;;;;;;5055822;28;20033;-73
2022/05/16 14:49:29;;;;;;;18.33;11.23;;;;;;;;;;5031697;28;20037;-73
2022/05/16 14:51:55;;;;;;;22.60;11.40;;;;;;;;;;5039588;28;20570;-73
2022/05/16 14:54:43;;;;;;;21.45;11.82;;;;;;;;;;5038323;28;20025;-73
2022/05/16 14:57:09;;;;;;;23.50;13.13;;;;;;;;;;5048920;28;20021;-73
2022/05/16 14:59:35;;;;;;;26.80;12.13;;;;;;;;;;5044288;28;20037;-73
2022/05/16 15:04:46;;;;;;;21.58;12.13;;;;;;;;;;5033756;28;20052;-73
2022/05/16 15:07:14;;;;;;;19.13;11.32;;;;;;;;;;5049950;28;20036;-73
2022/05/16 15:09:40;;;;;;;21.27;10.68;;;;;;;;;;5032828;28;20061;-73
2022/05/16 15:12:08;;;;;;;17.23;11.07;;;;;;;;;;5020540;28;20400;-73
2022/05/16 15:14:36;;;;;;;22.58;13.27;;;;;;;;;;5048869;28;20040;-73
2022/05/16 15:17:05;;;;;;;25.85;13.45;;;;;;;;;;5064602;28;20636;-72
2022/05/16 15:19:32;;;;;;;21.38;13.68;;;;;;;;;;5047052;28;20037;-72
2022/05/16 15:21:59;;;;;;;24.98;14.35;;;;;;;;;;5048086;28;20053;-73
2022/05/16 15:24:38;;;;;;;23.67;13.77;;;;;;;;;;5038474;28;20029;-74
2022/05/16 15:27:08;;;;;;;23.20;13.27;;;;;;;;;;5022045;28;20165;-73
2022/05/16 15:29:36;;;;;;;21.02;12.80;;;;;;;;;;5046718;28;20116;-74
2022/05/16 15:32:03;;;;;;;23.08;12.55;;;;;;;;;;5056005;28;20485;-74
2022/05/16 15:34:30;;;;;;;25.30;13.70;;;;;;;;;;5042895;28;20443;-74
2022/05/16 15:36:57;;;;;;;24.38;13.30;;;;;;;;;;5043678;28;20033;-74